Time;durP1;ratioP1;P1;durP2;ratioP2;P2;SDS_P1;SDS_P2;PMS_P1;PMS_P2;Temp;Humidity;BMP_temperature;BMP_pressure;BME280_temperature;BME280_humidity;BME280_pressure;Samples;Min_cycle;Max_cycle;Signal;HPM_P1;HPM_P2
2021/08/15 00:00:49;;;;;;;;;27.33;25.67;;;;;;;;2568228;30;150891;-71
2021/08/15 00:03:18;;;;;;;;;25.33;24.00;;;;;;;;2566272;38;151320;-71
2021/08/15 00:05:46;;;;;;;;;23.00;22.00;;;;;;;;2566359;30;149953;-71
2021/08/15 00:08:17;;;;;;;;;24.67;24.00;;;;;;;;2564504;38;151329;-71
2021/08/15 00:10:46;;;;;;;;;24.33;23.00;;;;;;;;2568123;30;149491;-71
2021/08/15 00:13:14;;;;;;;;;23.67;23.00;;;;;;;;2568394;30;150713;-72
2021/08/15 00:15:42;;;;;;;;;24.00;23.00;;;;;;;;2564231;38;150952;-71
2021/08/15 00:18:11;;;;;;;;;27.00;22.67;;;;;;;;2563840;38;149332;-72
2021/08/15 00:20:39;;;;;;;;;25.00;24.25;;;;;;;;2567780;30;151124;-72
2021/08/15 00:23:07;;;;;;;;;23.75;23.00;;;;;;;;2568044;38;151111;-72
2021/08/15 00:25:38;;;;;;;;;20.33;20.33;;;;;;;;2563486;38;151458;-71
2021/08/15 00:28:07;;;;;;;;;26.75;24.50;;;;;;;;2564421;38;151201;-71
2021/08/15 00:30:35;;;;;;;;;21.00;21.00;;;;;;;;2568542;30;149325;-72
2021/08/15 00:33:03;;;;;;;;;21.67;20.00;;;;;;;;2565051;38;150675;-72
2021/08/15 00:35:32;;;;;;;;;22.33;22.00;;;;;;;;2564239;30;151016;-72
2021/08/15 00:38:00;;;;;;;;;20.00;19.33;;;;;;;;2568783;30;149393;-71
2021/08/15 00:40:29;;;;;;;;;25.00;22.33;;;;;;;;2566539;38;151403;-71
2021/08/15 00:43:00;;;;;;;;;21.00;20.67;;;;;;;;2566696;30;151801;-72
2021/08/15 00:45:28;;;;;;;;;18.25;16.00;;;;;;;;2567708;30;149316;-71
2021/08/15 00:47:57;;;;;;;;;20.67;20.67;;;;;;;;2566872;30;151594;-72
2021/08/15 00:50:25;;;;;;;;;25.00;22.25;;;;;;;;2566280;30;149517;-71
2021/08/15 00:52:53;;;;;;;;;21.00;19.67;;;;;;;;2564568;30;151831;-70
2021/08/15 00:55:22;;;;;;;;;22.00;20.33;;;;;;;;2565924;30;151902;-70
2021/08/15 00:57:50;;;;;;;;;21.00;20.00;;;;;;;;2569005;30;149657;-71
2021/08/15 01:00:21;;;;;;;;;19.67;19.67;;;;;;;;2567094;38;150472;-71
2021/08/15 01:02:50;;;;;;;;;20.00;17.67;;;;;;;;2565033;38;151904;-70
2021/08/15 01:05:19;;;;;;;;;21.00;20.50;;;;;;;;2564695;38;149613;-70
2021/08/15 01:07:47;;;;;;;;;24.75;23.25;;;;;;;;2566874;30;150335;-70
2021/08/15 01:10:17;;;;;;;;;24.50;22.00;;;;;;;;2569114;30;149226;-71
2021/08/15 01:12:45;;;;;;;;;21.33;20.33;;;;;;;;2565601;30;151554;-71
2021/08/15 01:15:14;;;;;;;;;23.00;23.00;;;;;;;;2565972;30;151214;-71
2021/08/15 01:17:45;;;;;;;;;24.75;23.25;;;;;;;;2564355;30;149820;-71
2021/08/15 01:20:14;;;;;;;;;26.25;22.50;;;;;;;;2568820;30;150593;-71
2021/08/15 01:22:43;;;;;;;;;25.00;22.50;;;;;;;;2567924;30;151263;-71
2021/08/15 01:25:12;;;;;;;;;24.00;23.25;;;;;;;;2567832;30;150155;-71
2021/08/15 01:27:42;;;;;;;;;25.00;22.25;;;;;;;;2566736;30;151335;-71
2021/08/15 01:30:14;;;;;;;;;24.25;22.75;;;;;;;;2570689;30;151013;-71
2021/08/15 01:32:43;;;;;;;;;28.00;26.50;;;;;;;;2567908;30;151329;-71
2021/08/15 01:35:13;;;;;;;;;26.00;23.75;;;;;;;;2566821;30;152068;-71
2021/08/15 01:37:43;;;;;;;;;27.25;22.25;;;;;;;;2564709;38;151111;-71
2021/08/15 01:40:13;;;;;;;;;26.67;26.67;;;;;;;;2570124;30;149712;-72
2021/08/15 01:42:41;;;;;;;;;24.25;23.00;;;;;;;;2564732;30;151817;-71
2021/08/15 01:45:13;;;;;;;;;24.50;23.25;;;;;;;;2565145;30;149768;-71
2021/08/15 01:47:41;;;;;;;;;28.25;28.25;;;;;;;;2567324;30;150635;-71
2021/08/15 01:50:10;;;;;;;;;25.75;25.00;;;;;;;;2567043;30;152145;-71
2021/08/15 01:52:39;;;;;;;;;25.50;25.50;;;;;;;;2568341;30;149401;-71
2021/08/15 01:55:09;;;;;;;;;26.25;26.25;;;;;;;;2566203;30;151119;-71
2021/08/15 01:57:37;;;;;;;;;19.00;19.00;;;;;;;;2569275;30;149821;-71
2021/08/15 02:00:06;;;;;;;;;25.75;24.25;;;;;;;;2565754;38;151409;-71
2021/08/15 02:02:37;;;;;;;;;24.50;23.00;;;;;;;;2564800;30;151858;-71
2021/08/15 02:05:05;;;;;;;;;24.50;24.00;;;;;;;;2566961;30;149482;-71
2021/08/15 02:07:34;;;;;;;;;24.25;24.00;;;;;;;;2563940;30;151181;-70
2021/08/15 02:10:02;;;;;;;;;26.50;24.25;;;;;;;;2565403;38;151716;-71
2021/08/15 02:12:30;;;;;;;;;24.00;23.00;;;;;;;;2564312;38;149545;-71
2021/08/15 02:14:58;;;;;;;;;25.25;24.00;;;;;;;;2569586;30;151198;-70
2021/08/15 02:17:27;;;;;;;;;25.00;24.00;;;;;;;;2567132;30;149944;-70
2021/08/15 02:19:58;;;;;;;;;24.00;20.25;;;;;;;;2568656;30;151321;-70
2021/08/15 02:22:26;;;;;;;;;23.25;22.25;;;;;;;;2565404;38;151976;-70
2021/08/15 02:24:54;;;;;;;;;29.25;25.00;;;;;;;;2566826;30;149507;-71
2021/08/15 02:27:23;;;;;;;;;24.50;24.50;;;;;;;;2564292;30;151415;-70
2021/08/15 02:29:51;;;;;;;;;25.25;23.00;;;;;;;;2565837;30;151988;-70
2021/08/15 02:32:19;;;;;;;;;24.00;23.25;;;;;;;;2564544;38;149477;-70
2021/08/15 02:34:47;;;;;;;;;25.25;22.25;;;;;;;;2570394;30;149964;-72
2021/08/15 02:37:18;;;;;;;;;23.75;23.00;;;;;;;;2565434;38;149266;-71
2021/08/15 02:39:47;;;;;;;;;26.00;26.00;;;;;;;;2565990;30;150695;-72
2021/08/15 02:42:15;;;;;;;;;25.25;23.75;;;;;;;;2563824;38;151177;-72
2021/08/15 02:44:43;;;;;;;;;22.25;19.75;;;;;;;;2564271;30;149321;-72
2021/08/15 02:47:12;;;;;;;;;24.00;23.25;;;;;;;;2564219;38;151084;-72
2021/08/15 02:49:40;;;;;;;;;23.00;22.00;;;;;;;;2565282;38;152585;-72
2021/08/15 02:52:09;;;;;;;;;24.00;23.00;;;;;;;;2564625;38;149803;-71
2021/08/15 02:54:40;;;;;;;;;26.00;21.00;;;;;;;;2566471;30;151455;-71
2021/08/15 02:57:08;;;;;;;;;23.25;22.25;;;;;;;;2569268;30;151224;-71
2021/08/15 02:59:39;;;;;;;;;25.75;23.50;;;;;;;;2568170;30;151650;-72
2021/08/15 03:02:07;;;;;;;;;27.25;24.75;;;;;;;;2566945;30;151143;-72
2021/08/15 03:04:35;;;;;;;;;24.75;23.75;;;;;;;;2565786;31;149359;-72
2021/08/15 03:07:04;;;;;;;;;21.50;20.00;;;;;;;;2565840;38;151493;-72
2021/08/15 03:09:33;;;;;;;;;25.50;22.75;;;;;;;;2566795;30;151886;-71
2021/08/15 03:12:04;;;;;;;;;24.75;21.25;;;;;;;;2565113;30;151825;-72
2021/08/15 03:14:32;;;;;;;;;26.00;23.75;;;;;;;;2570080;30;150859;-71
2021/08/15 03:17:01;;;;;;;;;21.75;21.50;;;;;;;;2564373;38;151809;-71
2021/08/15 03:19:29;;;;;;;;;23.00;22.00;;;;;;;;2568435;30;149804;-71
2021/08/15 03:21:57;;;;;;;;;25.00;24.00;;;;;;;;2564683;30;151086;-72
2021/08/15 03:24:25;;;;;;;;;25.00;22.25;;;;;;;;2563350;38;149460;-71
2021/08/15 03:26:54;;;;;;;;;25.00;23.25;;;;;;;;2564177;30;150612;-71
2021/08/15 03:29:24;;;;;;;;;25.25;23.00;;;;;;;;2567867;30;151280;-71
2021/08/15 03:31:53;;;;;;;;;25.75;24.75;;;;;;;;2566497;30;150065;-72
2021/08/15 03:34:21;;;;;;;;;24.50;21.00;;;;;;;;2565030;38;151026;-71
2021/08/15 03:36:50;;;;;;;;;24.00;22.75;;;;;;;;2567400;30;151065;-72
2021/08/15 03:39:19;;;;;;;;;25.50;23.00;;;;;;;;2563778;38;150299;-72
2021/08/15 03:41:49;;;;;;;;;26.00;22.25;;;;;;;;2570029;30;150702;-72
2021/08/15 03:44:17;;;;;;;;;23.50;22.75;;;;;;;;2565610;38;149236;-72
2021/08/15 03:46:48;;;;;;;;;22.00;22.00;;;;;;;;2566836;30;151110;-72
2021/08/15 03:49:18;;;;;;;;;26.50;26.00;;;;;;;;2568157;30;151163;-71
2021/08/15 03:51:46;;;;;;;;;24.50;23.50;;;;;;;;2564973;38;149366;-71
2021/08/15 03:54:17;;;;;;;;;23.75;23.25;;;;;;;;2566960;30;150860;-71
2021/08/15 03:56:45;;;;;;;;;25.00;24.00;;;;;;;;2566511;38;152459;-71
2021/08/15 03:59:13;;;;;;;;;24.00;22.75;;;;;;;;2564415;30;150582;-71
2021/08/15 04:01:42;;;;;;;;;21.00;21.00;;;;;;;;2564506;30;151614;-71
2021/08/15 04:04:12;;;;;;;;;23.00;23.00;;;;;;;;2567085;30;152001;-71
2021/08/15 04:06:41;;;;;;;;;23.25;21.50;;;;;;;;2568075;30;150643;-71
2021/08/15 04:09:10;;;;;;;;;25.25;24.25;;;;;;;;2564569;38;152007;-72
2021/08/15 04:11:39;;;;;;;;;23.00;23.00;;;;;;;;2564351;38;149294;-71
2021/08/15 04:14:07;;;;;;;;;26.50;24.75;;;;;;;;2566121;38;150898;-71
2021/08/15 04:16:36;;;;;;;;;25.50;23.00;;;;;;;;2563414;38;151943;-71
2021/08/15 04:19:04;;;;;;;;;24.00;21.75;;;;;;;;2567264;30;149303;-71
2021/08/15 04:21:35;;;;;;;;;25.00;24.00;;;;;;;;2566869;30;150627;-71
2021/08/15 04:24:03;;;;;;;;;26.25;23.50;;;;;;;;2567471;30;152034;-71
2021/08/15 04:26:31;;;;;;;;;22.25;21.75;;;;;;;;2568122;38;149287;-71
2021/08/15 04:29:00;;;;;;;;;24.25;21.75;;;;;;;;2564901;30;152355;-71
2021/08/15 04:31:28;;;;;;;;;23.75;22.25;;;;;;;;2566174;38;149493;-71
2021/08/15 04:33:56;;;;;;;;;28.50;25.75;;;;;;;;2569477;30;150989;-71
2021/08/15 04:36:24;;;;;;;;;26.25;23.75;;;;;;;;2567305;30;151095;-71
2021/08/15 04:38:55;;;;;;;;;24.00;23.25;;;;;;;;2565071;38;150827;-71
2021/08/15 04:41:24;;;;;;;;;23.00;22.25;;;;;;;;2566384;30;151299;-70
2021/08/15 04:43:52;;;;;;;;;24.00;24.00;;;;;;;;2564708;30;151942;-72
2021/08/15 04:46:20;;;;;;;;;25.00;23.25;;;;;;;;2570722;30;149360;-72
2021/08/15 04:48:49;;;;;;;;;22.25;21.25;;;;;;;;2567646;30;152053;-71
2021/08/15 04:51:17;;;;;;;;;24.00;23.25;;;;;;;;2565183;38;149438;-73
2021/08/15 04:53:45;;;;;;;;;25.50;23.25;;;;;;;;2568364;30;150583;-68
2021/08/15 04:56:16;;;;;;;;;23.75;22.50;;;;;;;;2564552;30;151114;-69
2021/08/15 04:58:44;;;;;;;;;26.00;24.00;;;;;;;;2565940;30;149532;-68
2021/08/15 05:01:13;;;;;;;;;23.00;23.00;;;;;;;;2564656;30;150500;-69
2021/08/15 05:03:41;;;;;;;;;21.25;21.25;;;;;;;;2563188;38;152294;-69
2021/08/15 05:06:09;;;;;;;;;21.75;21.75;;;;;;;;2566707;30;149828;-70
2021/08/15 05:08:38;;;;;;;;;24.00;22.25;;;;;;;;2568698;30;150536;-69
2021/08/15 05:11:06;;;;;;;;;22.67;22.67;;;;;;;;2568536;30;151012;-69
2021/08/15 05:13:37;;;;;;;;;21.50;21.00;;;;;;;;2565437;30;150639;-70
2021/08/15 05:16:05;;;;;;;;;25.00;23.25;;;;;;;;2567529;30;151177;-69
2021/08/15 05:18:34;;;;;;;;;22.00;22.00;;;;;;;;2565221;38;149830;-69
2021/08/15 05:21:02;;;;;;;;;24.25;22.75;;;;;;;;2565802;38;150716;-70
2021/08/15 05:23:30;;;;;;;;;26.75;24.25;;;;;;;;2564584;38;151955;-71
2021/08/15 05:25:59;;;;;;;;;24.50;22.75;;;;;;;;2563494;30;149517;-69
2021/08/15 05:28:27;;;;;;;;;22.00;21.50;;;;;;;;2568520;30;150611;-69
2021/08/15 05:30:58;;;;;;;;;25.25;23.25;;;;;;;;2569764;30;151916;-70
2021/08/15 05:33:26;;;;;;;;;23.50;21.00;;;;;;;;2569732;30;151587;-71
2021/08/15 05:35:55;;;;;;;;;25.75;23.50;;;;;;;;2566050;30;151270;-78
2021/08/15 05:38:23;;;;;;;;;21.00;20.50;;;;;;;;2563922;38;150242;-71
2021/08/15 05:40:52;;;;;;;;;22.50;21.50;;;;;;;;2565039;38;151200;-71
2021/08/15 05:43:20;;;;;;;;;24.25;22.75;;;;;;;;2567333;30;151925;-71
2021/08/15 05:45:48;;;;;;;;;25.50;23.50;;;;;;;;2565885;30;149784;-71
2021/08/15 05:48:20;;;;;;;;;24.75;23.75;;;;;;;;2569506;30;151575;-71
2021/08/15 05:50:48;;;;;;;;;22.25;22.25;;;;;;;;2563752;38;151944;-75
2021/08/15 05:53:16;;;;;;;;;30.50;26.50;;;;;;;;2568905;30;149549;-75
2021/08/15 05:55:45;;;;;;;;;22.50;22.50;;;;;;;;2564741;30;151881;-74
2021/08/15 05:58:13;;;;;;;;;23.75;23.25;;;;;;;;2565698;38;149679;-75
2021/08/15 06:00:41;;;;;;;;;25.25;23.50;;;;;;;;2563741;30;151442;-75
2021/08/15 06:03:09;;;;;;;;;26.50;22.25;;;;;;;;2566414;30;151470;-73
2021/08/15 06:05:43;;;;;;;;;21.50;20.75;;;;;;;;2565278;30;149816;-72
2021/08/15 06:08:11;;;;;;;;;26.50;25.00;;;;;;;;2565295;38;151695;-74
2021/08/15 06:10:39;;;;;;;;;21.00;20.00;;;;;;;;2565226;38;151792;-74
2021/08/15 06:13:09;;;;;;;;;21.00;20.00;;;;;;;;2564985;30;149565;-72
2021/08/15 06:15:37;;;;;;;;;24.25;23.75;;;;;;;;2567166;30;150341;-71
2021/08/15 06:18:06;;;;;;;;;23.75;23.00;;;;;;;;2566779;30;150897;-73
2021/08/15 06:20:34;;;;;;;;;24.75;24.00;;;;;;;;2563382;38;151507;-74
2021/08/15 06:23:05;;;;;;;;;24.75;23.75;;;;;;;;2567284;30;151183;-73
2021/08/15 06:25:33;;;;;;;;;26.25;21.00;;;;;;;;2563166;38;150075;-74
2021/08/15 06:28:02;;;;;;;;;24.00;22.75;;;;;;;;2565986;38;151047;-75
2021/08/15 06:30:30;;;;;;;;;25.00;21.75;;;;;;;;2564163;30;151226;-80
2021/08/15 06:32:59;;;;;;;;;23.00;20.75;;;;;;;;2564276;30;149611;-76
2021/08/15 06:35:29;;;;;;;;;22.00;20.00;;;;;;;;2565829;30;150654;-78
2021/08/15 06:37:57;;;;;;;;;23.00;22.25;;;;;;;;2569401;30;149455;-79
2021/08/15 06:40:30;;;;;;;;;22.00;22.00;;;;;;;;2564905;38;150636;-73
2021/08/15 06:43:06;;;;;;;;;23.50;21.75;;;;;;;;2563899;30;151216;-74
2021/08/15 06:45:34;;;;;;;;;22.75;22.75;;;;;;;;2566105;30;149389;-74
2021/08/15 06:48:03;;;;;;;;;23.25;22.75;;;;;;;;2564331;30;151283;-76
2021/08/15 06:50:31;;;;;;;;;25.25;22.50;;;;;;;;2564462;30;151027;-78
2021/08/15 06:52:59;;;;;;;;;23.25;23.00;;;;;;;;2564844;30;149413;-75
2021/08/15 06:55:30;;;;;;;;;27.00;25.75;;;;;;;;2564721;38;151164;-78
2021/08/15 06:57:59;;;;;;;;;25.25;23.75;;;;;;;;2568835;30;152593;-79
2021/08/15 07:00:27;;;;;;;;;23.75;22.00;;;;;;;;2563423;30;151499;-76
2021/08/15 07:02:55;;;;;;;;;26.50;24.50;;;;;;;;2566428;30;151208;-74
2021/08/15 07:05:24;;;;;;;;;23.00;21.25;;;;;;;;2564255;30;149446;-74
2021/08/15 07:07:52;;;;;;;;;22.00;20.75;;;;;;;;2563286;30;151030;-73
2021/08/15 07:10:20;;;;;;;;;25.00;22.00;;;;;;;;2562918;38;151956;-76
2021/08/15 07:12:55;;;;;;;;;21.25;20.25;;;;;;;;2565436;30;149623;-80
2021/08/15 07:15:28;;;;;;;;;23.25;22.25;;;;;;;;2564179;30;151479;-78
2021/08/15 07:17:56;;;;;;;;;22.75;21.50;;;;;;;;2565641;30;151075;-77
2021/08/15 07:20:25;;;;;;;;;25.50;25.50;;;;;;;;2569651;30;149587;-76
2021/08/15 07:22:53;;;;;;;;;24.50;23.75;;;;;;;;2565200;30;150979;-77
2021/08/15 07:25:24;;;;;;;;;27.75;24.75;;;;;;;;2564074;30;149505;-77
2021/08/15 07:27:55;;;;;;;;;13.00;13.00;;;;;;;;2562419;38;150507;-74
2021/08/15 07:30:23;;;;;;;;;23.25;21.25;;;;;;;;2564638;30;151025;-74
2021/08/15 07:32:53;;;;;;;;;25.75;23.75;;;;;;;;2564950;38;149320;-78
2021/08/15 07:35:21;;;;;;;;;25.25;24.00;;;;;;;;2567173;30;150780;-78
2021/08/15 07:37:50;;;;;;;;;27.00;26.00;;;;;;;;2563482;30;151175;-79
2021/08/15 07:40:18;;;;;;;;;27.00;23.00;;;;;;;;2562301;30;149555;-75
2021/08/15 07:42:50;;;;;;;;;28.25;27.25;;;;;;;;2564170;30;152052;-81
2021/08/15 07:45:21;;;;;;;;;41.00;34.00;;;;;;;;2565796;30;150293;-75
2021/08/15 07:47:50;;;;;;;;;29.75;28.25;;;;;;;;2564840;38;150658;-76
2021/08/15 07:50:18;;;;;;;;;28.25;28.25;;;;;;;;2566294;30;151653;-78
2021/08/15 07:52:47;;;;;;;;;39.50;34.50;;;;;;;;2564981;30;150387;-76
2021/08/15 07:55:15;;;;;;;;;35.25;31.00;;;;;;;;2567271;30;151087;-77
2021/08/15 07:57:43;;;;;;;;;30.00;27.00;;;;;;;;2562578;30;150460;-76
2021/08/15 08:00:13;;;;;;;;;28.33;25.33;;;;;;;;2564118;30;150207;-76
2021/08/15 08:02:43;;;;;;;;;24.33;23.33;;;;;;;;2565605;30;151320;-76
2021/08/15 08:05:12;;;;;;;;;23.67;22.67;;;;;;;;2566103;38;152295;-79
2021/08/15 08:07:40;;;;;;;;;26.00;25.33;;;;;;;;2567811;30;151558;-75
2021/08/15 08:10:09;;;;;;;;;25.00;25.00;;;;;;;;2562672;38;152562;-77
2021/08/15 08:12:37;;;;;;;;;26.33;24.33;;;;;;;;2563709;38;150319;-77
2021/08/15 08:15:06;;;;;;;;;25.67;25.67;;;;;;;;2565314;31;151187;-77
2021/08/15 08:17:34;;;;;;;;;24.00;23.00;;;;;;;;2564918;30;152189;-79
2021/08/15 08:20:05;;;;;;;;;26.33;25.33;;;;;;;;2566758;30;149817;-78
2021/08/15 08:22:34;;;;;;;;;23.33;23.00;;;;;;;;2566292;30;149678;-82
2021/08/15 08:25:02;;;;;;;;;25.00;24.00;;;;;;;;2565366;30;151323;-84
2021/08/15 08:27:30;;;;;;;;;27.67;24.67;;;;;;;;2568023;30;149755;-75
2021/08/15 08:29:59;;;;;;;;;23.00;23.00;;;;;;;;2564741;30;152819;-78
2021/08/15 08:32:27;;;;;;;;;25.00;23.67;;;;;;;;2567828;30;149439;-75
2021/08/15 08:34:55;;;;;;;;;25.67;24.67;;;;;;;;2566537;30;150990;-80
2021/08/15 08:37:26;;;;;;;;;26.67;24.67;;;;;;;;2567195;30;152005;-81
2021/08/15 08:39:59;;;;;;;;;25.00;25.00;;;;;;;;2566237;30;149772;-78
2021/08/15 08:42:29;;;;;;;;;25.67;24.67;;;;;;;;2565289;30;151365;-76
2021/08/15 08:45:00;;;;;;;;;25.33;24.00;;;;;;;;2566849;30;151819;-76
2021/08/15 08:47:29;;;;;;;;;26.67;25.00;;;;;;;;2564711;38;149555;-71
2021/08/15 08:49:58;;;;;;;;;28.67;25.67;;;;;;;;2563283;30;151903;-75
2021/08/15 08:52:30;;;;;;;;;25.00;24.00;;;;;;;;2565979;30;149623;-75
2021/08/15 08:54:59;;;;;;;;;26.33;25.67;;;;;;;;2565751;30;151941;-75
2021/08/15 08:57:28;;;;;;;;;24.00;23.00;;;;;;;;2562664;38;151946;-75
2021/08/15 08:59:56;;;;;;;;;27.00;26.67;;;;;;;;2563052;30;149847;-75
2021/08/15 09:02:24;;;;;;;;;28.33;26.00;;;;;;;;2564763;38;150694;-75
2021/08/15 09:04:53;;;;;;;;;21.33;21.33;;;;;;;;2563435;38;151150;-75
2021/08/15 09:07:23;;;;;;;;;25.33;25.33;;;;;;;;2563232;30;149784;-75
2021/08/15 09:09:58;;;;;;;;;24.00;24.00;;;;;;;;2563615;30;151338;-76
2021/08/15 09:12:35;;;;;;;;;22.00;22.00;;;;;;;;2566895;30;149738;-76
2021/08/15 09:15:15;;;;;;;;;27.33;23.00;;;;;;;;2566808;38;150665;-74
2021/08/15 09:17:43;;;;;;;;;24.00;23.33;;;;;;;;2566377;30;151404;-76
2021/08/15 09:20:13;;;;;;;;;25.67;23.67;;;;;;;;2565909;38;149240;-76
2021/08/15 09:22:42;;;;;;;;;25.00;23.33;;;;;;;;2567501;30;150915;-76
2021/08/15 09:25:17;;;;;;;;;21.33;21.33;;;;;;;;2565243;38;152085;-76
2021/08/15 09:27:47;;;;;;;;;23.00;22.67;;;;;;;;2567890;30;150870;-76
2021/08/15 09:30:19;;;;;;;;;22.50;20.00;;;;;;;;2567559;30;151268;-76
2021/08/15 09:32:49;;;;;;;;;21.50;20.00;;;;;;;;2568798;30;150940;-75
2021/08/15 09:35:22;;;;;;;;;21.00;20.33;;;;;;;;2567849;30;151570;-76
2021/08/15 09:37:56;;;;;;;;;22.00;22.00;;;;;;;;2566309;30;151217;-76
2021/08/15 09:40:29;;;;;;;;;21.67;20.33;;;;;;;;2566128;38;149588;-75
2021/08/15 09:42:58;;;;;;;;;17.75;17.00;;;;;;;;2565954;38;149627;-75
2021/08/15 09:45:39;;;;;;;;;17.00;17.00;;;;;;;;2565291;30;151219;-76
2021/08/15 09:48:18;;;;;;;;;21.25;19.50;;;;;;;;2567669;30;149184;-74
2021/08/15 09:51:02;;;;;;;;;22.00;22.00;;;;;;;;2564148;30;151707;-74
2021/08/15 09:53:31;;;;;;;;;20.50;19.50;;;;;;;;2565833;30;152049;-74
2021/08/15 09:56:02;;;;;;;;;15.75;14.25;;;;;;;;2569028;30;149879;-74
2021/08/15 09:58:30;;;;;;;;;19.00;19.00;;;;;;;;2564381;38;151583;-76
2021/08/15 10:01:00;;;;;;;;;20.67;19.33;;;;;;;;2567648;30;149463;-76
2021/08/15 10:03:28;;;;;;;;;26.67;25.33;;;;;;;;2566755;30;150820;-73
2021/08/15 10:05:57;;;;;;;;;23.67;22.67;;;;;;;;2566118;30;152111;-74
2021/08/15 10:08:28;;;;;;;;;21.00;20.33;;;;;;;;2564966;38;149443;-74
2021/08/15 10:10:57;;;;;;;;;27.33;25.67;;;;;;;;2568739;30;150948;-74
2021/08/15 10:13:28;;;;;;;;;16.67;15.00;;;;;;;;2567597;30;151335;-74
2021/08/15 10:15:59;;;;;;;;;16.00;16.00;;;;;;;;2564461;38;149289;-74
2021/08/15 10:18:29;;;;;;;;;20.67;20.67;;;;;;;;2566448;38;150586;-74
2021/08/15 10:21:04;;;;;;;;;25.33;25.33;;;;;;;;2565856;38;149553;-74
2021/08/15 10:23:40;;;;;;;;;29.67;28.33;;;;;;;;2564935;30;150776;-74
2021/08/15 10:26:23;;;;;;;;;15.00;13.00;;;;;;;;2567346;30;150117;-75
2021/08/15 10:28:54;;;;;;;;;26.00;24.67;;;;;;;;2564366;30;149517;-75
2021/08/15 10:31:23;;;;;;;;;18.33;17.67;;;;;;;;2567255;30;151430;-75
2021/08/15 10:33:56;;;;;;;;;17.33;15.67;;;;;;;;2567264;30;151197;-75
2021/08/15 10:36:28;;;;;;;;;15.67;14.67;;;;;;;;2566018;30;150150;-74
2021/08/15 10:38:58;;;;;;;;;22.67;20.67;;;;;;;;2564405;38;150546;-75
2021/08/15 10:41:41;;;;;;;;;20.33;20.00;;;;;;;;2570044;30;151246;-74
2021/08/15 10:44:13;;;;;;;;;15.00;15.00;;;;;;;;2568955;30;151902;-74
2021/08/15 10:46:56;;;;;;;;;27.33;25.67;;;;;;;;2566063;30;151246;-74
2021/08/15 10:49:45;;;;;;;;;27.00;25.67;;;;;;;;2565306;30;149144;-75
2021/08/15 10:52:27;;;;;;;;;24.00;21.33;;;;;;;;2568034;30;151864;-74
2021/08/15 10:54:59;;;;;;;;;23.67;21.33;;;;;;;;2567617;30;151538;-74
2021/08/15 10:57:51;;;;;;;;;25.67;25.00;;;;;;;;2567570;38;149432;-74
2021/08/15 11:00:34;;;;;;;;;19.00;18.33;;;;;;;;2565728;38;151233;-75
2021/08/15 11:03:25;;;;;;;;;23.00;23.00;;;;;;;;2567028;30;151275;-75
2021/08/15 11:05:54;;;;;;;;;21.50;19.50;;;;;;;;2565004;38;150862;-74
2021/08/15 11:08:37;;;;;;;;;25.33;24.67;;;;;;;;2565650;38;151121;-74
2021/08/15 11:11:06;;;;;;;;;22.67;22.67;;;;;;;;2567961;30;149345;-74
2021/08/15 11:13:34;;;;;;;;;18.00;18.00;;;;;;;;2566430;30;150613;-74
2021/08/15 11:16:17;;;;;;;;;22.67;20.67;;;;;;;;2568291;30;151813;-75
2021/08/15 11:19:15;;;;;;;;;23.00;23.00;;;;;;;;2568468;30;149813;-75
2021/08/15 11:21:58;;;;;;;;;21.67;21.67;;;;;;;;2567143;30;149792;-75
2021/08/15 11:24:27;;;;;;;;;23.67;23.67;;;;;;;;2565348;38;151098;-75
2021/08/15 11:26:55;;;;;;;;;15.67;14.67;;;;;;;;2568705;30;149584;-75
2021/08/15 11:29:24;;;;;;;;;14.67;12.67;;;;;;;;2563744;38;151283;-75
2021/08/15 11:31:54;;;;;;;;;22.33;22.33;;;;;;;;2566745;30;149332;-75
2021/08/15 11:34:25;;;;;;;;;24.33;24.33;;;;;;;;2566008;30;150687;-75
2021/08/15 11:36:57;;;;;;;;;13.33;12.67;;;;;;;;2565121;30;151524;-75
2021/08/15 11:39:32;;;;;;;;;13.67;13.67;;;;;;;;2564618;30;149668;-75
2021/08/15 11:42:01;;;;;;;;;20.67;18.00;;;;;;;;2566575;30;150709;-75
2021/08/15 11:44:44;;;;;;;;;13.00;13.00;;;;;;;;2565111;38;151412;-74
2021/08/15 11:47:20;;;;;;;;;22.33;21.67;;;;;;;;2569621;30;149422;-75
2021/08/15 11:49:51;;;;;;;;;18.33;16.33;;;;;;;;2566506;38;151387;-74
2021/08/15 11:52:20;;;;;;;;;23.00;22.33;;;;;;;;2566311;30;150090;-74
2021/08/15 11:54:49;;;;;;;;;11.33;11.33;;;;;;;;2564663;38;150814;-74
2021/08/15 11:57:17;;;;;;;;;11.00;11.00;;;;;;;;2564634;38;151219;-75
2021/08/15 11:59:46;;;;;;;;;18.00;16.33;;;;;;;;2568590;30;149743;-75
2021/08/15 12:02:21;;;;;;;;;20.67;20.00;;;;;;;;2567808;30;151068;-74
2021/08/15 12:04:53;;;;;;;;;22.67;21.33;;;;;;;;2564894;30;150971;-75
2021/08/15 12:07:24;;;;;;;;;14.00;13.00;;;;;;;;2566557;38;149372;-75
2021/08/15 12:10:08;;;;;;;;;17.33;16.67;;;;;;;;2568197;30;151233;-75
2021/08/15 12:12:36;;;;;;;;;14.00;14.00;;;;;;;;2570292;30;150787;-75
2021/08/15 12:15:07;;;;;;;;;21.00;20.33;;;;;;;;2566424;30;151404;-75
2021/08/15 12:17:51;;;;;;;;;16.67;16.33;;;;;;;;2563769;38;151774;-75
2021/08/15 12:20:27;;;;;;;;;17.00;17.00;;;;;;;;2567703;30;149587;-75
2021/08/15 12:22:55;;;;;;;;;24.33;20.33;;;;;;;;2566372;30;151514;-73
2021/08/15 12:25:24;;;;;;;;;19.67;18.00;;;;;;;;2565349;30;151932;-75
2021/08/15 12:27:53;;;;;;;;;21.00;20.33;;;;;;;;2564326;38;149484;-75
2021/08/15 12:30:31;;;;;;;;;15.33;13.67;;;;;;;;2564578;38;151266;-74
2021/08/15 12:33:02;;;;;;;;;18.00;16.67;;;;;;;;2563970;38;152010;-76
2021/08/15 12:35:33;;;;;;;;;18.00;18.00;;;;;;;;2570270;30;151675;-75
2021/08/15 12:38:01;;;;;;;;;18.00;18.00;;;;;;;;2566786;30;151898;-76
2021/08/15 12:40:30;;;;;;;;;14.67;13.67;;;;;;;;2565173;30;149262;-76
2021/08/15 12:42:59;;;;;;;;;10.00;6.00;;;;;;;;2566849;30;151842;-75
2021/08/15 12:45:32;;;;;;;;;21.67;19.00;;;;;;;;2567884;30;151301;-74
2021/08/15 12:48:01;;;;;;;;;14.67;12.67;;;;;;;;2567780;30;149365;-75
2021/08/15 12:50:30;;;;;;;;;16.33;16.00;;;;;;;;2564923;38;151377;-74
2021/08/15 12:53:02;;;;;;;;;19.33;16.67;;;;;;;;2565305;38;152045;-75
2021/08/15 12:55:34;;;;;;;;;17.67;15.00;;;;;;;;2567541;30;149384;-74
2021/08/15 12:58:03;;;;;;;;;17.33;17.00;;;;;;;;2570909;30;151634;-74
2021/08/15 13:00:33;;;;;;;;;21.67;21.33;;;;;;;;2568430;30;149498;-75
2021/08/15 13:03:02;;;;;;;;;18.67;16.00;;;;;;;;2566948;30;151086;-75
2021/08/15 13:05:31;;;;;;;;;16.00;14.00;;;;;;;;2566938;30;151281;-75
2021/08/15 13:08:02;;;;;;;;;19.33;19.00;;;;;;;;2566228;30;149276;-75
2021/08/15 13:10:33;;;;;;;;;23.33;23.00;;;;;;;;2565534;38;151430;-74
2021/08/15 13:13:03;;;;;;;;;20.67;19.67;;;;;;;;2565535;31;151194;-74
2021/08/15 13:15:31;;;;;;;;;21.00;17.50;;;;;;;;2565614;38;149563;-75
2021/08/15 13:18:00;;;;;;;;;19.67;19.00;;;;;;;;2566374;38;151311;-75
2021/08/15 13:20:30;;;;;;;;;16.67;13.67;;;;;;;;2567621;30;149384;-75
2021/08/15 13:22:58;;;;;;;;;22.00;22.00;;;;;;;;2565201;38;152037;-75
2021/08/15 13:25:30;;;;;;;;;22.00;18.67;;;;;;;;2568003;30;151865;-76
2021/08/15 13:28:01;;;;;;;;;14.67;12.00;;;;;;;;2565286;30;149520;-75
2021/08/15 13:30:30;;;;;;;;;18.33;16.33;;;;;;;;2568009;30;150520;-75
2021/08/15 13:33:00;;;;;;;;;24.33;23.33;;;;;;;;2564741;30;152907;-75
2021/08/15 13:35:29;;;;;;;;;19.00;18.33;;;;;;;;2566176;30;149281;-75
2021/08/15 13:37:57;;;;;;;;;19.33;14.33;;;;;;;;2567834;30;150706;-75
2021/08/15 13:40:25;;;;;;;;;22.00;19.33;;;;;;;;2568398;30;152253;-74
2021/08/15 13:42:57;;;;;;;;;20.00;17.33;;;;;;;;2564258;38;150701;-74
2021/08/15 13:45:25;;;;;;;;;14.67;14.67;;;;;;;;2566627;30;152368;-74
2021/08/15 13:47:54;;;;;;;;;19.00;19.00;;;;;;;;2565096;38;150616;-76
2021/08/15 13:50:22;;;;;;;;;19.00;14.67;;;;;;;;2565657;38;151030;-75
2021/08/15 13:52:50;;;;;;;;;19.00;17.67;;;;;;;;2568082;30;151222;-75
2021/08/15 13:55:20;;;;;;;;;21.67;18.33;;;;;;;;2567122;30;150247;-76
2021/08/15 13:57:49;;;;;;;;;19.00;19.00;;;;;;;;2566005;30;150593;-75
2021/08/15 14:00:20;;;;;;;;;13.00;11.33;;;;;;;;2563996;38;151133;-75
2021/08/15 14:02:48;;;;;;;;;18.67;16.67;;;;;;;;2570407;30;150480;-74
2021/08/15 14:05:17;;;;;;;;;18.33;16.67;;;;;;;;2563630;38;150533;-75
2021/08/15 14:07:45;;;;;;;;;19.67;18.00;;;;;;;;2564367;30;149747;-75
2021/08/15 14:10:14;;;;;;;;;12.33;10.33;;;;;;;;2565839;30;150795;-75
2021/08/15 14:12:42;;;;;;;;;14.67;14.67;;;;;;;;2566978;30;151196;-75
2021/08/15 14:15:11;;;;;;;;;10.67;9.33;;;;;;;;2564841;30;149654;-75
2021/08/15 14:17:42;;;;;;;;;12.33;10.67;;;;;;;;2564986;38;150627;-75
2021/08/15 14:20:11;;;;;;;;;18.67;17.33;;;;;;;;2568157;30;151893;-74